Time;durP1;ratioP1;P1;durP2;ratioP2;P2;SDS_P1;SDS_P2;PMS_P1;PMS_P2;Temp;Humidity;BMP_temperature;BMP_pressure;BME280_temperature;BME280_humidity;BME280_pressure;Samples;Min_cycle;Max_cycle;Signal;HPM_P1;HPM_P2
2022/10/23 00:01:38;;;;;;;21.55;6.10;;;16.70;99.90;;;;;;4957837;28;20507;-63
2022/10/23 00:04:13;;;;;;;20.23;5.55;;;15.60;99.90;;;;;;4974560;28;20054;-62
2022/10/23 00:06:39;;;;;;;15.77;5.32;;;15.40;99.90;;;;;;4971264;28;20047;-63
2022/10/23 00:09:07;;;;;;;23.92;5.43;;;16.30;99.90;;;;;;4974732;28;20042;-62
2022/10/23 00:11:34;;;;;;;18.95;5.50;;;15.80;99.90;;;;;;4975621;28;20042;-62
2022/10/23 00:14:02;;;;;;;16.67;5.38;;;15.60;99.90;;;;;;4975203;28;20035;-62
2022/10/23 00:16:28;;;;;;;12.77;4.60;;;14.50;99.90;;;;;;4957777;28;20145;-62
2022/10/23 00:18:54;;;;;;;13.32;5.40;;;14.80;99.90;;;;;;4968543;28;20448;-62
2022/10/23 00:21:20;;;;;;;15.07;5.30;;;14.30;99.90;;;;;;4968881;28;20041;-62
2022/10/23 00:23:46;;;;;;;16.38;4.90;;;15.40;99.90;;;;;;4974641;28;20039;-62
2022/10/23 00:26:15;;;;;;;13.43;4.82;;;15.20;99.90;;;;;;4971389;28;20450;-63
2022/10/23 00:28:47;;;;;;;18.58;5.03;;;14.70;99.90;;;;;;4956912;28;20039;-62
2022/10/23 00:31:13;;;;;;;17.10;5.93;;;15.00;99.90;;;;;;4960304;28;20051;-62
2022/10/23 00:33:39;;;;;;;17.77;6.00;;;15.70;99.90;;;;;;4956795;28;20047;-62
2022/10/23 00:36:06;;;;;;;17.38;6.20;;;14.30;99.90;;;;;;4967561;28;20087;-62
2022/10/23 00:38:32;;;;;;;21.45;7.00;;;14.60;99.90;;;;;;4927553;28;20061;-62
2022/10/23 00:40:58;;;;;;;24.48;8.20;;;13.90;99.90;;;;;;4966150;28;20039;-62
2022/10/23 00:43:26;;;;;;;17.38;7.45;;;15.70;99.90;;;;;;4968979;28;20050;-62
2022/10/23 00:45:52;;;;;;;28.08;8.25;;;15.40;99.90;;;;;;4972856;28;20026;-62
2022/10/23 00:48:18;;;;;;;25.08;7.72;;;14.20;99.90;;;;;;4973037;28;20046;-62
2022/10/23 00:50:45;;;;;;;23.33;7.20;;;15.50;99.90;;;;;;4953775;28;20042;-63
2022/10/23 00:53:12;;;;;;;22.38;8.05;;;15.10;99.90;;;;;;4959745;28;20031;-62
2022/10/23 00:55:40;;;;;;;18.20;7.15;;;14.20;99.90;;;;;;4973047;28;20027;-62
2022/10/23 00:58:06;;;;;;;23.50;7.60;;;14.00;99.90;;;;;;4965411;28;20035;-62
2022/10/23 01:00:50;;;;;;;16.70;7.82;;;13.90;99.90;;;;;;4966359;28;20109;-62
2022/10/23 01:03:18;;;;;;;23.00;7.38;;;13.80;99.90;;;;;;4973504;28;20454;-62
2022/10/23 01:06:03;;;;;;;14.70;7.43;;;14.20;99.90;;;;;;4971234;28;20098;-62
2022/10/23 01:08:54;;;;;;;22.23;7.25;;;15.40;99.90;;;;;;4942812;28;20043;-62
2022/10/23 01:11:41;;;;;;;25.17;6.50;;;15.20;99.90;;;;;;4972354;28;20039;-62
2022/10/23 01:14:29;;;;;;;19.55;7.43;;;13.70;99.90;;;;;;4955108;29;20405;-62
2022/10/23 01:17:10;;;;;;;18.48;7.95;;;14.20;99.90;;;;;;4969982;28;20046;-62
2022/10/23 01:19:55;;;;;;;16.67;7.35;;;13.70;99.90;;;;;;4973449;28;20523;-62
2022/10/23 01:22:40;;;;;;;20.08;7.80;;;13.90;99.90;;;;;;4973354;28;20106;-62
2022/10/23 01:25:21;;;;;;;23.95;7.20;;;13.70;99.90;;;;;;4972553;28;20046;-62
2022/10/23 01:27:53;;;;;;;20.98;7.82;;;15.20;99.90;;;;;;4971719;28;20080;-62
2022/10/23 01:30:18;;;;;;;19.50;8.23;;;13.70;99.90;;;;;;4970468;28;20117;-62
2022/10/23 01:33:00;;;;;;;19.25;8.00;;;13.80;99.90;;;;;;4969927;28;20118;-62
2022/10/23 01:35:48;;;;;;;24.75;8.82;;;13.70;99.90;;;;;;4973070;28;20035;-63
2022/10/23 01:38:39;;;;;;;19.65;8.48;;;13.70;99.90;;;;;;4966492;28;20513;-62
2022/10/23 01:41:23;;;;;;;24.33;8.80;;;14.50;99.90;;;;;;4953665;28;20055;-62
2022/10/23 01:44:09;;;;;;;20.13;7.50;;;13.80;99.90;;;;;;4972972;28;20469;-61
2022/10/23 01:46:36;;;;;;;25.45;8.20;;;13.50;99.90;;;;;;4971278;28;20130;-62
2022/10/23 01:49:04;;;;;;;20.25;7.78;;;15.30;99.90;;;;;;4972504;28;20039;-62
2022/10/23 01:51:31;;;;;;;18.25;7.95;;;13.50;99.90;;;;;;4971497;28;20043;-62
2022/10/23 01:53:59;;;;;;;22.67;7.90;;;13.50;99.90;;;;;;4961257;28;20489;-62
2022/10/23 01:56:31;;;;;;;25.38;8.65;;;14.80;99.90;;;;;;4969486;28;20050;-62
2022/10/23 01:59:02;;;;;;;15.00;8.48;;;14.30;99.90;;;;;;4973345;28;20513;-62
2022/10/23 02:01:31;;;;;;;16.50;8.00;;;15.00;99.90;;;;;;4965705;28;20039;-62
2022/10/23 02:03:59;;;;;;;12.30;7.00;;;13.40;99.90;;;;;;4953918;29;20070;-62
2022/10/23 02:06:25;;;;;;;13.73;7.25;;;14.00;99.90;;;;;;4955277;28;20125;-62
2022/10/23 02:08:50;;;;;;;15.52;8.43;;;14.00;99.90;;;;;;4940021;28;20121;-62
2022/10/23 02:11:19;;;;;;;15.32;8.10;;;13.90;99.90;;;;;;4958291;28;20118;-62
2022/10/23 02:14:12;;;;;;;22.45;8.90;;;13.40;99.90;;;;;;4936575;29;20142;-62
2022/10/23 02:16:40;;;;;;;21.92;8.90;;;14.30;99.90;;;;;;4967970;28;20564;-62
2022/10/23 02:19:20;;;;;;;21.00;9.02;;;13.30;99.90;;;;;;4971084;28;20054;-62
2022/10/23 02:21:54;;;;;;;17.60;9.32;;;13.50;99.90;;;;;;4961793;28;20039;-62
2022/10/23 02:24:27;;;;;;;13.52;8.98;;;13.40;99.90;;;;;;4952215;28;20050;-62
2022/10/23 02:26:58;;;;;;;15.82;8.48;;;14.30;99.90;;;;;;4953916;28;20042;-62
2022/10/23 02:29:23;;;;;;;22.40;8.95;;;14.20;99.90;;;;;;4967156;28;20046;-62
2022/10/23 02:31:48;;;;;;;20.42;9.55;;;13.60;99.90;;;;;;4962450;28;20054;-62
2022/10/23 02:34:14;;;;;;;15.05;9.35;;;14.70;99.90;;;;;;4971321;28;20121;-62
2022/10/23 02:36:40;;;;;;;22.25;10.75;;;13.50;99.90;;;;;;4971193;28;20093;-62
2022/10/23 02:39:05;;;;;;;25.70;9.93;;;13.70;99.90;;;;;;4951938;28;20046;-62
2022/10/23 02:41:45;;;;;;;22.55;10.57;;;13.50;99.90;;;;;;4971936;28;20517;-62
2022/10/23 02:44:25;;;;;;;25.55;10.98;;;15.10;99.90;;;;;;4972824;28;20046;-62
2022/10/23 02:47:13;;;;;;;19.73;10.52;;;13.90;99.90;;;;;;4951256;28;20053;-63
2022/10/23 02:50:02;;;;;;;28.67;11.68;;;15.20;99.90;;;;;;4955131;28;20046;-62
2022/10/23 02:52:54;;;;;;;19.80;10.70;;;15.30;99.90;;;;;;4950954;29;20051;-62
2022/10/23 02:55:54;;;;;;;24.58;10.93;;;13.70;99.90;;;;;;4970752;28;20082;-62
2022/10/23 02:58:23;;;;;;;24.95;11.07;;;15.50;99.90;;;;;;4959187;28;20070;-62
2022/10/23 03:00:53;;;;;;;25.80;11.63;;;13.70;99.90;;;;;;4970839;28;20508;-63
2022/10/23 03:03:27;;;;;;;26.00;12.23;;;15.60;99.90;;;;;;4958218;28;20055;-62
2022/10/23 03:05:53;;;;;;;32.53;11.80;;;15.60;99.90;;;;;;4955461;28;20043;-62
2022/10/23 03:08:18;;;;;;;22.92;10.98;;;15.60;99.90;;;;;;4971427;28;20445;-62
2022/10/23 03:10:44;;;;;;;19.10;10.77;;;15.50;99.90;;;;;;4963322;28;20422;-63
2022/10/23 03:13:10;;;;;;;23.67;11.68;;;13.90;99.90;;;;;;4972397;28;20408;-63
2022/10/23 03:15:36;;;;;;;22.13;11.25;;;15.60;99.90;;;;;;4971766;28;20050;-63
2022/10/23 03:18:01;;;;;;;20.13;11.43;;;14.00;99.90;;;;;;4954393;28;20047;-62
2022/10/23 03:20:27;;;;;;;20.35;12.48;;;15.90;99.90;;;;;;4971695;28;20531;-62
2022/10/23 03:22:52;;;;;;;24.77;11.85;;;14.60;99.90;;;;;;4970615;28;20258;-62
2022/10/23 03:25:18;;;;;;;23.75;13.15;;;15.90;99.90;;;;;;4962660;28;20101;-62
2022/10/23 03:27:43;;;;;;;24.75;13.88;;;14.50;99.90;;;;;;4937720;29;20129;-62
2022/10/23 03:30:09;;;;;;;21.75;14.02;;;16.00;99.90;;;;;;4973427;28;20054;-62
2022/10/23 03:32:35;;;;;;;30.02;14.30;;;14.30;99.90;;;;;;4975345;28;20050;-62
2022/10/23 03:35:00;;;;;;;20.83;11.77;;;14.00;99.90;;;;;;4972342;28;20074;-63
2022/10/23 03:37:26;;;;;;;23.95;12.27;;;14.00;99.90;;;;;;4968531;28;20039;-62
2022/10/23 03:39:51;;;;;;;20.88;12.88;;;14.20;99.90;;;;;;4962285;28;20039;-62
2022/10/23 03:42:17;;;;;;;24.42;13.68;;;15.80;99.90;;;;;;4962162;28;20121;-62
2022/10/23 03:44:43;;;;;;;17.38;12.02;;;14.20;99.90;;;;;;4974364;28;20394;-62
2022/10/23 03:47:10;;;;;;;20.40;14.02;;;15.80;99.90;;;;;;4975858;28;20097;-63
2022/10/23 03:49:37;;;;;;;29.80;15.00;;;15.50;99.90;;;;;;4958412;28;20039;-62
2022/10/23 03:52:03;;;;;;;23.70;12.98;;;14.10;99.90;;;;;;4958652;28;20043;-62
2022/10/23 03:54:29;;;;;;;33.30;13.80;;;16.10;99.90;;;;;;4974838;28;20098;-62
2022/10/23 03:56:55;;;;;;;19.67;13.02;;;15.20;99.90;;;;;;4967602;28;20047;-62
2022/10/23 03:59:21;;;;;;;24.25;13.23;;;15.70;99.90;;;;;;4956641;29;20039;-62
2022/10/23 04:01:46;;;;;;;22.33;13.00;;;15.90;99.90;;;;;;4975063;28;20049;-63
2022/10/23 04:04:12;;;;;;;17.52;11.52;;;14.50;99.90;;;;;;4975573;28;20101;-62
2022/10/23 04:06:38;;;;;;;22.10;12.55;;;15.30;99.90;;;;;;4975658;28;20555;-63
2022/10/23 04:09:04;;;;;;;24.48;14.30;;;15.20;99.90;;;;;;4971982;28;20050;-62
2022/10/23 04:11:30;;;;;;;23.35;13.82;;;16.00;99.90;;;;;;4972551;28;20049;-62
2022/10/23 04:13:56;;;;;;;22.42;13.13;;;16.00;99.90;;;;;;4975452;28;20427;-62
2022/10/23 04:16:23;;;;;;;21.20;12.55;;;14.40;99.90;;;;;;4974392;28;20082;-63
2022/10/23 04:18:48;;;;;;;18.17;12.25;;;14.60;99.90;;;;;;4956193;28;20101;-62
2022/10/23 04:21:14;;;;;;;19.33;12.07;;;15.90;99.90;;;;;;4963161;28;20504;-62
2022/10/23 04:23:40;;;;;;;23.00;13.80;;;14.40;99.90;;;;;;4973956;28;20424;-62
2022/10/23 04:26:05;;;;;;;20.20;12.80;;;14.40;99.90;;;;;;4972581;28;20504;-62
2022/10/23 04:28:31;;;;;;;25.67;13.35;;;14.40;99.90;;;;;;4975257;28;20057;-62
2022/10/23 04:30:57;;;;;;;22.90;13.68;;;15.80;99.90;;;;;;4975301;28;20070;-62
2022/10/23 04:33:23;;;;;;;21.00;12.65;;;14.70;99.90;;;;;;4973604;28;20043;-62
2022/10/23 04:35:49;;;;;;;21.58;12.65;;;15.70;99.90;;;;;;4956232;28;20489;-62
2022/10/23 04:38:14;;;;;;;29.83;11.80;;;15.10;99.90;;;;;;4973711;28;20121;-62
2022/10/23 04:40:40;;;;;;;21.70;12.20;;;15.60;99.90;;;;;;4964960;28;20062;-63
2022/10/23 04:43:05;;;;;;;24.15;12.13;;;16.10;99.90;;;;;;4973846;28;20158;-62
2022/10/23 04:45:31;;;;;;;24.85;13.15;;;15.90;99.90;;;;;;4974162;28;20485;-62
2022/10/23 04:47:56;;;;;;;25.75;13.57;;;14.60;99.90;;;;;;4973525;28;20089;-63
2022/10/23 04:50:22;;;;;;;20.38;13.45;;;14.30;99.90;;;;;;4966273;28;20081;-63
2022/10/23 04:52:48;;;;;;;17.33;12.80;;;16.10;99.90;;;;;;4969368;28;20519;-62
2022/10/23 04:55:13;;;;;;;22.63;14.55;;;16.50;99.90;;;;;;4971087;28;20385;-62
2022/10/23 04:57:40;;;;;;;19.38;14.07;;;14.70;99.90;;;;;;4972569;28;20031;-62
2022/10/23 05:00:08;;;;;;;21.65;14.15;;;14.60;99.90;;;;;;4960735;28;20047;-62
2022/10/23 05:02:34;;;;;;;24.23;13.80;;;15.30;99.90;;;;;;4964915;28;20125;-62
2022/10/23 05:05:00;;;;;;;22.08;13.40;;;14.60;99.90;;;;;;4973687;28;20150;-63
2022/10/23 05:07:25;;;;;;;25.67;13.75;;;16.20;99.90;;;;;;4969930;28;20042;-62
2022/10/23 05:09:51;;;;;;;26.48;13.35;;;14.50;99.90;;;;;;4957135;28;20079;-62
2022/10/23 05:12:17;;;;;;;22.08;13.82;;;15.40;99.90;;;;;;4940451;29;20074;-62
2022/10/23 05:14:42;;;;;;;25.63;14.25;;;15.30;99.90;;;;;;4959147;28;20039;-63
2022/10/23 05:17:15;;;;;;;23.92;13.48;;;14.80;99.90;;;;;;4974037;28;20047;-63
2022/10/23 05:19:52;;;;;;;21.15;13.25;;;16.20;99.90;;;;;;4953147;28;20493;-62
2022/10/23 05:22:19;;;;;;;20.60;12.27;;;14.80;99.90;;;;;;4972547;28;20456;-62
2022/10/23 05:24:44;;;;;;;22.65;13.52;;;15.80;99.90;;;;;;4967812;28;20076;-62
2022/10/23 05:27:10;;;;;;;20.55;13.60;;;15.10;99.90;;;;;;4972978;28;20122;-62
2022/10/23 05:29:35;;;;;;;26.33;14.38;;;16.30;99.90;;;;;;4972064;28;20065;-62
2022/10/23 05:32:04;;;;;;;20.77;12.80;;;15.00;99.90;;;;;;4958740;28;20098;-62
2022/10/23 05:34:31;;;;;;;20.05;13.70;;;15.00;99.90;;;;;;4945373;28;20564;-62
2022/10/23 05:36:57;;;;;;;26.88;13.48;;;14.40;99.90;;;;;;4972293;28;20069;-63
2022/10/23 05:39:23;;;;;;;19.70;12.13;;;15.60;99.90;;;;;;4962890;28;20090;-62
2022/10/23 05:41:50;;;;;;;24.23;14.07;;;14.50;99.90;;;;;;4961357;28;20070;-62
2022/10/23 05:44:15;;;;;;;23.35;12.63;;;14.80;99.90;;;;;;4967542;28;20049;-63
2022/10/23 05:46:41;;;;;;;23.73;13.05;;;14.60;99.90;;;;;;4966014;28;20030;-63
2022/10/23 05:49:07;;;;;;;20.85;12.70;;;16.40;99.90;;;;;;4968941;28;20577;-62
2022/10/23 05:51:36;;;;;;;21.55;13.02;;;14.50;99.90;;;;;;4967055;28;20161;-63
2022/10/23 05:54:02;;;;;;;17.70;11.70;;;16.10;99.90;;;;;;4967154;28;20396;-62
2022/10/23 05:56:27;;;;;;;18.02;11.10;;;16.40;99.90;;;;;;4961647;28;20035;-64
2022/10/23 05:58:53;;;;;;;18.90;13.88;;;14.90;99.90;;;;;;4962510;28;20078;-63
2022/10/23 06:01:18;;;;;;;17.48;13.15;;;15.80;99.90;;;;;;4972350;28;20417;-63
2022/10/23 06:03:44;;;;;;;16.55;12.50;;;14.90;99.90;;;;;;4970886;28;20100;-62
2022/10/23 06:06:09;;;;;;;22.67;12.02;;;15.10;99.90;;;;;;4960644;28;20035;-63
2022/10/23 06:08:35;;;;;;;14.60;11.10;;;16.20;99.90;;;;;;4971274;28;20485;-63
2022/10/23 06:11:06;;;;;;;27.55;12.65;;;16.20;99.90;;;;;;4967569;28;20106;-62
2022/10/23 06:13:31;;;;;;;23.80;10.35;;;14.50;99.90;;;;;;4968967;28;20178;-62
2022/10/23 06:15:57;;;;;;;20.17;12.30;;;14.30;99.90;;;;;;4968777;28;20137;-62
2022/10/23 06:18:22;;;;;;;16.38;12.07;;;14.40;99.90;;;;;;4968556;28;20525;-62
2022/10/23 06:20:48;;;;;;;15.80;11.10;;;15.50;99.90;;;;;;4969548;28;20497;-62
2022/10/23 06:23:13;;;;;;;21.27;12.45;;;16.40;99.90;;;;;;4966369;28;20039;-62
2022/10/23 06:25:39;;;;;;;26.73;12.85;;;16.40;99.90;;;;;;4963900;28;20046;-63
2022/10/23 06:28:04;;;;;;;16.17;11.43;;;14.40;99.90;;;;;;4965045;28;20031;-63
2022/10/23 06:30:30;;;;;;;18.08;12.10;;;14.40;99.90;;;;;;4970095;28;20062;-63
2022/10/23 06:32:55;;;;;;;21.92;13.00;;;14.50;99.90;;;;;;4960911;28;20051;-63
2022/10/23 06:35:21;;;;;;;27.42;13.77;;;15.00;99.90;;;;;;4955868;28;20043;-63
2022/10/23 06:37:46;;;;;;;20.02;12.82;;;14.40;99.90;;;;;;4969041;28;20027;-63
2022/10/23 06:40:12;;;;;;;19.80;12.25;;;14.70;99.90;;;;;;4964361;28;20030;-62
2022/10/23 06:42:37;;;;;;;18.13;11.77;;;14.70;99.90;;;;;;4960593;28;20067;-62
2022/10/23 06:45:04;;;;;;;17.42;10.93;;;14.60;99.90;;;;;;4966852;28;20046;-63
2022/10/23 06:47:29;;;;;;;16.65;11.35;;;14.40;99.90;;;;;;4963052;28;20026;-63
2022/10/23 06:49:55;;;;;;;23.52;12.88;;;14.80;99.90;;;;;;4929037;28;20087;-63
2022/10/23 06:52:20;;;;;;;23.50;11.82;;;16.00;99.90;;;;;;4961868;28;20043;-62
2022/10/23 06:54:46;;;;;;;16.95;11.85;;;16.50;99.90;;;;;;4968947;28;20031;-63
2022/10/23 06:57:11;;;;;;;21.25;11.68;;;15.50;99.90;;;;;;4952091;28;20142;-66
2022/10/23 06:59:37;;;;;;;20.90;12.65;;;14.80;99.90;;;;;;4946904;28;20078;-61
2022/10/23 07:02:02;;;;;;;25.55;14.07;;;14.80;99.90;;;;;;4958495;28;20051;-61
2022/10/23 07:04:28;;;;;;;22.63;14.35;;;15.70;99.90;;;;;;4963649;28;20405;-61
2022/10/23 07:06:56;;;;;;;25.48;12.57;;;16.40;99.90;;;;;;4974228;28;20129;-61
2022/10/23 07:09:21;;;;;;;22.77;14.77;;;15.00;99.90;;;;;;4967914;28;20046;-60
2022/10/23 07:11:47;;;;;;;21.02;13.30;;;16.90;99.90;;;;;;4969966;28;20039;-61
2022/10/23 07:14:13;;;;;;;23.13;12.88;;;15.00;99.90;;;;;;4974716;28;20046;-61
2022/10/23 07:16:39;;;;;;;19.85;11.93;;;17.10;99.90;;;;;;4959078;28;20382;-61
2022/10/23 07:19:05;;;;;;;19.13;12.32;;;17.00;99.90;;;;;;4974527;28;20050;-61
2022/10/23 07:21:33;;;;;;;20.45;13.02;;;15.90;99.90;;;;;;4973664;28;20536;-60
2022/10/23 07:23:59;;;;;;;26.88;12.57;;;17.20;99.90;;;;;;4971952;28;20047;-61
2022/10/23 07:26:24;;;;;;;22.08;12.93;;;16.30;99.90;;;;;;4963875;28;20039;-61
2022/10/23 07:28:53;;;;;;;19.23;12.25;;;15.30;99.90;;;;;;4957060;28;20046;-62
2022/10/23 07:31:20;;;;;;;30.83;13.88;;;17.20;99.90;;;;;;4967237;28;20126;-62
2022/10/23 07:33:46;;;;;;;25.08;13.70;;;15.30;99.90;;;;;;4965998;28;20035;-62
2022/10/23 07:36:11;;;;;;;23.13;12.25;;;16.90;99.90;;;;;;4970783;28;20177;-62
2022/10/23 07:38:37;;;;;;;20.08;12.73;;;15.60;99.90;;;;;;4956495;29;20040;-61
2022/10/23 07:41:03;;;;;;;24.95;13.52;;;16.70;99.90;;;;;;4960989;28;20443;-61
2022/10/23 07:43:29;;;;;;;20.95;12.38;;;15.50;99.90;;;;;;4968496;28;20068;-61
2022/10/23 07:45:54;;;;;;;20.92;12.57;;;15.80;99.90;;;;;;4975669;28;20211;-61
2022/10/23 07:48:20;;;;;;;21.55;13.45;;;15.50;99.90;;;;;;4958326;28;20050;-61
2022/10/23 07:50:46;;;;;;;22.33;13.32;;;17.00;99.90;;;;;;4966187;28;20105;-62
2022/10/23 07:53:19;;;;;;;15.98;9.63;;;16.30;99.90;;;;;;4941404;28;20080;-62
2022/10/23 07:55:59;;;;;;;24.83;13.02;;;17.00;99.90;;;;;;4958776;28;20114;-61
2022/10/23 07:58:26;;;;;;;19.92;12.57;;;15.90;99.90;;;;;;4962809;28;20047;-62
2022/10/23 08:01:03;;;;;;;29.58;14.40;;;14.70;99.90;;;;;;4952171;28;20175;-62
2022/10/23 08:03:31;;;;;;;22.67;12.55;;;16.20;99.90;;;;;;4961867;28;20367;-63
2022/10/23 08:05:59;;;;;;;24.15;12.20;;;15.40;99.90;;;;;;4964228;28;20059;-62
2022/10/23 08:08:25;;;;;;;23.92;12.98;;;15.20;99.90;;;;;;4965613;28;20114;-64
2022/10/23 08:10:53;;;;;;;19.42;12.77;;;15.10;99.90;;;;;;4946868;28;20074;-62
2022/10/23 08:13:20;;;;;;;22.15;12.70;;;16.00;99.90;;;;;;4973063;28;20085;-62
2022/10/23 08:15:47;;;;;;;25.33;13.25;;;14.00;99.90;;;;;;4971890;28;20042;-63
2022/10/23 08:18:13;;;;;;;20.02;11.95;;;15.30;99.90;;;;;;4966989;28;20142;-62
2022/10/23 08:20:40;;;;;;;23.10;14.32;;;14.00;99.90;;;;;;4956487;28;20046;-63
2022/10/23 08:23:06;;;;;;;22.33;12.50;;;14.40;99.90;;;;;;4968905;28;20039;-62
2022/10/23 08:25:32;;;;;;;22.33;12.13;;;14.40;99.90;;;;;;4948454;28;20058;-62
2022/10/23 08:27:57;;;;;;;21.65;11.35;;;14.60;99.90;;;;;;4975585;28;20046;-62
2022/10/23 08:30:23;;;;;;;24.83;12.32;;;14.00;99.90;;;;;;4973646;28;20051;-62
2022/10/23 08:32:48;;;;;;;20.38;11.80;;;15.10;99.90;;;;;;4972744;28;20046;-62
2022/10/23 08:35:14;;;;;;;23.95;12.85;;;14.50;99.90;;;;;;4973162;28;20385;-62
2022/10/23 08:37:40;;;;;;;22.52;11.65;;;15.60;99.90;;;;;;4943968;28;20086;-62
2022/10/23 08:40:06;;;;;;;22.55;11.40;;;14.00;99.90;;;;;;4965504;28;20488;-62
2022/10/23 08:42:37;;;;;;;17.45;12.48;;;14.90;99.90;;;;;;4956878;28;20043;-62
2022/10/23 08:45:05;;;;;;;23.80;12.18;;;15.30;99.90;;;;;;4956080;28;20050;-62
2022/10/23 08:47:45;;;;;;;22.90;12.95;;;16.20;99.90;;;;;;4967791;28;20041;-62
2022/10/23 08:50:18;;;;;;;18.23;11.48;;;14.30;99.90;;;;;;4958794;28;20081;-62
2022/10/23 08:52:51;;;;;;;19.65;10.77;;;14.20;99.90;;;;;;4975258;28;20057;-64
2022/10/23 08:55:28;;;;;;;20.33;11.07;;;16.30;99.90;;;;;;4963754;28;20460;-63
2022/10/23 08:58:05;;;;;;;16.92;10.13;;;15.60;99.90;;;;;;4963268;28;20038;-63
2022/10/23 09:00:30;;;;;;;19.20;11.38;;;14.70;99.90;;;;;;4943174;28;20093;-64
2022/10/23 09:02:59;;;;;;;24.63;11.32;;;15.50;99.90;;;;;;4960236;28;20055;-63
2022/10/23 09:06:18;;;;;;;27.83;11.23;;;14.90;99.90;;;;;;4968029;28;20049;-62
2022/10/23 09:08:56;;;;;;;20.58;11.07;;;14.70;99.90;;;;;;4919828;28;20054;-62
2022/10/23 09:11:40;;;;;;;18.83;10.93;;;15.50;99.90;;;;;;4965634;28;20043;-62
2022/10/23 09:14:23;;;;;;;22.23;12.40;;;16.30;99.90;;;;;;4964833;28;20089;-63
2022/10/23 09:16:55;;;;;;;25.65;11.00;;;16.40;99.90;;;;;;4950223;28;20049;-62
2022/10/23 09:19:26;;;;;;;20.55;11.52;;;16.80;99.90;;;;;;4970207;28;20420;-62
2022/10/23 09:21:54;;;;;;;21.80;10.68;;;16.50;99.90;;;;;;4974238;28;20478;-62
2022/10/23 09:24:22;;;;;;;20.95;10.35;;;15.40;99.90;;;;;;4956131;28;20031;-62
2022/10/23 09:26:50;;;;;;;21.45;10.73;;;15.50;99.90;;;;;;4949951;28;20066;-62
2022/10/23 09:29:47;;;;;;;23.23;10.98;;;16.70;99.90;;;;;;4965072;28;20062;-62
2022/10/23 09:32:12;;;;;;;18.45;10.95;;;16.80;99.90;;;;;;4927802;28;20123;-63
2022/10/23 09:34:50;;;;;;;14.77;9.07;;;17.00;99.90;;;;;;4964001;28;20107;-62
2022/10/23 09:37:21;;;;;;;16.80;10.98;;;16.60;99.90;;;;;;4967379;28;20094;-62
2022/10/23 09:39:47;;;;;;;13.98;9.73;;;15.10;99.90;;;;;;4930266;28;20557;-62
2022/10/23 09:42:23;;;;;;;19.73;10.02;;;15.30;99.90;;;;;;4963117;28;20039;-62
2022/10/23 09:44:51;;;;;;;12.52;9.45;;;15.40;99.90;;;;;;4962896;28;20043;-63
2022/10/23 09:47:23;;;;;;;16.88;8.40;;;15.80;99.90;;;;;;4967848;28;20677;-62
2022/10/23 09:49:51;;;;;;;18.58;8.80;;;16.40;99.90;;;;;;4969195;28;20528;-62
2022/10/23 09:52:16;;;;;;;18.77;10.07;;;16.30;99.90;;;;;;4957331;28;20453;-62
2022/10/23 09:54:46;;;;;;;18.20;9.30;;;16.50;99.90;;;;;;4965137;28;20039;-62
2022/10/23 09:57:35;;;;;;;20.02;8.55;;;17.40;99.90;;;;;;4966749;28;20035;-62
2022/10/23 10:00:30;;;;;;;13.55;8.93;;;15.20;99.90;;;;;;4971249;28;20456;-62
2022/10/23 10:03:05;;;;;;;13.20;8.90;;;15.20;99.90;;;;;;4948427;28;20129;-62
2022/10/23 10:05:36;;;;;;;13.70;7.70;;;16.60;99.90;;;;;;4962873;28;20535;-63
2022/10/23 10:08:12;;;;;;;14.65;8.35;;;15.90;99.90;;;;;;4965345;28;20549;-63
2022/10/23 10:10:44;;;;;;;15.80;8.38;;;16.90;99.90;;;;;;4958363;28;20046;-62
2022/10/23 10:13:35;;;;;;;16.73;9.25;;;16.10;99.90;;;;;;4961071;28;20062;-63
2022/10/23 10:16:19;;;;;;;21.65;9.00;;;17.30;99.90;;;;;;4955177;28;20521;-63
2022/10/23 10:18:55;;;;;;;16.38;8.93;;;17.60;99.90;;;;;;4971260;28;20038;-63
2022/10/23 10:21:27;;;;;;;18.23;9.13;;;16.10;99.90;;;;;;4970499;28;20047;-63
2022/10/23 10:24:04;;;;;;;14.85;7.45;;;17.90;99.90;;;;;;4967938;28;20097;-64
2022/10/23 10:26:40;;;;;;;17.38;7.95;;;17.90;99.90;;;;;;4969095;28;20835;-63
2022/10/23 10:29:36;;;;;;;13.73;7.68;;;16.40;99.90;;;;;;4966608;28;20039;-64
2022/10/23 10:32:31;;;;;;;15.45;8.10;;;17.30;99.90;;;;;;4939406;28;20065;-64
2022/10/23 10:35:19;;;;;;;16.55;8.82;;;17.10;99.90;;;;;;4953939;28;20035;-63
2022/10/23 10:38:03;;;;;;;16.70;7.90;;;18.30;99.90;;;;;;4953924;28;20529;-63
2022/10/23 10:40:40;;;;;;;11.57;7.13;;;17.90;99.90;;;;;;4954047;29;20035;-63
2022/10/23 10:43:25;;;;;;;13.45;6.78;;;18.20;99.90;;;;;;4944615;29;20062;-64
2022/10/23 10:46:12;;;;;;;12.25;6.30;;;18.00;99.90;;;;;;4955769;28;20051;-63
2022/10/23 10:48:46;;;;;;;10.60;6.60;;;18.30;99.90;;;;;;4972933;28;20039;-64
2022/10/23 10:51:26;;;;;;;11.20;7.47;;;16.40;99.90;;;;;;4971383;28;20062;-63
2022/10/23 10:54:09;;;;;;;14.23;9.13;;;18.50;99.90;;;;;;4953741;28;20036;-63
2022/10/23 10:56:40;;;;;;;12.43;7.32;;;18.40;99.90;;;;;;4953862;29;20514;-63
2022/10/23 10:59:37;;;;;;;18.05;8.57;;;18.60;99.90;;;;;;4953593;29;20054;-64
2022/10/23 11:02:21;;;;;;;16.63;8.15;;;18.40;99.90;;;;;;4944345;28;20536;-63
2022/10/23 11:04:55;;;;;;;13.50;8.30;;;18.70;99.90;;;;;;4972931;28;20656;-64
2022/10/23 11:07:25;;;;;;;12.85;7.20;;;16.50;99.90;;;;;;4972947;28;20050;-64
2022/10/23 11:09:51;;;;;;;8.90;7.28;;;18.50;99.90;;;;;;4955464;28;20493;-63
2022/10/23 11:12:22;;;;;;;9.43;6.80;;;17.40;99.90;;;;;;4973108;28;20118;-63
2022/10/23 11:14:49;;;;;;;12.50;8.02;;;17.10;99.90;;;;;;4972713;28;20039;-63
2022/10/23 11:17:20;;;;;;;12.30;6.57;;;16.60;99.90;;;;;;4971930;28;20125;-63
2022/10/23 11:20:24;;;;;;;10.98;6.88;;;16.80;99.90;;;;;;4967873;28;20047;-63
2022/10/23 11:23:13;;;;;;;12.80;6.38;;;16.70;99.90;;;;;;4857069;29;20053;-64
2022/10/23 11:26:02;;;;;;;8.57;5.35;;;18.50;99.90;;;;;;4951078;29;20051;-64
2022/10/23 11:28:39;;;;;;;11.05;5.65;;;17.40;99.90;;;;;;4958460;28;20129;-64
2022/10/23 11:31:26;;;;;;;8.43;5.10;;;17.20;99.90;;;;;;4966719;28;20488;-64
2022/10/23 11:34:07;;;;;;;14.85;6.00;;;18.40;99.90;;;;;;4969501;28;20481;-63
2022/10/23 11:36:42;;;;;;;14.77;7.30;;;17.00;99.90;;;;;;4965444;28;20039;-63
2022/10/23 11:39:21;;;;;;;14.77;6.72;;;18.50;99.90;;;;;;4972426;28;20062;-63
2022/10/23 11:42:03;;;;;;;12.40;6.13;;;18.30;99.90;;;;;;4950155;28;20559;-63
2022/10/23 11:44:50;;;;;;;8.90;5.85;;;18.40;99.90;;;;;;4951484;29;20457;-63
2022/10/23 11:47:34;;;;;;;8.35;5.40;;;16.90;99.90;;;;;;4939342;28;20122;-63
2022/10/23 11:50:06;;;;;;;18.15;6.72;;;17.20;99.90;;;;;;4974932;28;20154;-63
2022/10/23 11:52:37;;;;;;;9.38;5.22;;;18.50;99.90;;;;;;4970544;28;20392;-64
2022/10/23 11:55:17;;;;;;;8.27;5.22;;;17.70;99.90;;;;;;4964974;28;20978;-63
2022/10/23 11:58:06;;;;;;;9.05;5.50;;;16.90;99.90;;;;;;4955734;28;20070;-63
2022/10/23 12:00:33;;;;;;;10.73;4.90;;;18.60;99.90;;;;;;4967457;28;20039;-64
2022/10/23 12:03:00;;;;;;;8.27;4.38;;;17.90;99.90;;;;;;4967985;28;20047;-63
2022/10/23 12:05:36;;;;;;;14.15;5.40;;;17.10;99.90;;;;;;4962185;28;20040;-64
2022/10/23 12:08:05;;;;;;;8.65;5.47;;;18.00;99.90;;;;;;4965511;28;20098;-63
2022/10/23 12:10:33;;;;;;;11.30;5.90;;;17.20;99.90;;;;;;4966233;28;20523;-64
2022/10/23 12:13:05;;;;;;;8.05;5.25;;;18.70;99.90;;;;;;4956587;29;20043;-63
2022/10/23 12:15:33;;;;;;;11.63;5.70;;;17.00;99.90;;;;;;4939664;29;20035;-64
2022/10/23 12:18:28;;;;;;;12.73;5.82;;;17.00;99.90;;;;;;4956612;29;20051;-63
2022/10/23 12:20:57;;;;;;;10.57;5.93;;;18.40;99.90;;;;;;4952469;28;20051;-63
2022/10/23 12:23:44;;;;;;;9.90;6.05;;;16.90;99.90;;;;;;4958277;28;20043;-63
2022/10/23 12:26:22;;;;;;;14.52;5.53;;;17.10;99.90;;;;;;4975620;28;20525;-63
2022/10/23 12:29:25;;;;;;;8.43;5.30;;;17.00;99.90;;;;;;4975434;28;20043;-63
2022/10/23 12:32:18;;;;;;;11.98;4.90;;;18.20;99.90;;;;;;4975656;28;20054;-63
2022/10/23 12:35:03;;;;;;;10.00;5.63;;;17.80;99.90;;;;;;4973112;28;20420;-63
2022/10/23 12:38:08;;;;;;;7.05;4.53;;;18.30;99.90;;;;;;4956207;28;20485;-63
2022/10/23 12:40:34;;;;;;;8.60;4.72;;;16.90;99.90;;;;;;4959980;28;20139;-63
2022/10/23 12:43:00;;;;;;;6.53;3.80;;;16.90;99.90;;;;;;4975231;28;20123;-63
2022/10/23 12:45:30;;;;;;;6.88;3.80;;;18.20;99.90;;;;;;4957789;28;20078;-63
2022/10/23 12:47:56;;;;;;;7.28;4.18;;;17.70;99.90;;;;;;4974900;28;20050;-63
2022/10/23 12:50:30;;;;;;;11.35;4.50;;;17.80;99.90;;;;;;4975233;28;20085;-63
2022/10/23 12:52:57;;;;;;;9.45;4.30;;;18.30;99.90;;;;;;4958055;28;20078;-64
2022/10/23 12:55:29;;;;;;;8.38;4.40;;;17.40;99.90;;;;;;4975236;28;20097;-64